createdAt,value
2023-03-06T00:00:45.048Z,10.36
2023-03-06T00:01:36.736Z,10.35
2023-03-06T00:02:28.290Z,10.27
2023-03-06T00:03:20.541Z,10.91
2023-03-06T00:04:12.959Z,10.33
2023-03-06T00:05:05.068Z,10.90
2023-03-06T00:05:59.329Z,10.75
2023-03-06T00:06:51.004Z,10.61
2023-03-06T00:07:43.969Z,10.21
2023-03-06T00:08:35.480Z,10.01
2023-03-06T00:09:27.179Z,10.22
2023-03-06T00:10:27.078Z,10.46
2023-03-06T00:11:18.728Z,10.81
2023-03-06T00:12:10.565Z,10.82
2023-03-06T00:13:06.133Z,10.56
2023-03-06T00:13:57.939Z,10.28
2023-03-06T00:14:49.759Z,10.46
2023-03-06T00:15:42.157Z,10.45
2023-03-06T00:16:33.622Z,10.50
2023-03-06T00:17:27.141Z,10.61
2023-03-06T00:18:18.602Z,10.21
2023-03-06T00:19:10.312Z,10.38
2023-03-06T00:20:02.008Z,10.48
2023-03-06T00:20:53.745Z,10.59
2023-03-06T00:21:46.260Z,10.05
2023-03-06T00:22:38.555Z,10.75
2023-03-06T00:23:30.305Z,10.98
2023-03-06T00:24:21.988Z,10.29
2023-03-06T00:25:16.804Z,10.29
2023-03-06T00:26:09.086Z,9.99
2023-03-06T00:27:02.159Z,9.53
2023-03-06T00:27:53.763Z,10.45
2023-03-06T00:28:45.226Z,10.85
2023-03-06T00:29:36.942Z,10.19
2023-03-06T00:30:28.402Z,10.56
2023-03-06T00:31:19.885Z,10.09
2023-03-06T00:32:11.408Z,10.75
2023-03-06T00:33:03.191Z,10.38
2023-03-06T00:33:55.278Z,10.53
2023-03-06T00:34:49.894Z,10.60
2023-03-06T00:35:41.938Z,10.72
2023-03-06T00:36:33.417Z,10.85
2023-03-06T00:37:25.357Z,10.92
2023-03-06T00:38:16.989Z,10.97
2023-03-06T00:39:08.765Z,11.02
2023-03-06T00:40:00.394Z,11.63
2023-03-06T00:40:51.852Z,11.21
2023-03-06T00:41:45.937Z,10.58
2023-03-06T00:42:38.420Z,11.22
2023-03-06T00:43:29.889Z,11.73
2023-03-06T00:44:21.636Z,11.21
2023-03-06T00:45:14.720Z,11.16
2023-03-06T00:46:07.298Z,12.18
2023-03-06T00:46:58.877Z,11.60
2023-03-06T00:47:50.434Z,11.45
2023-03-06T00:48:41.992Z,11.27
2023-03-06T00:49:33.703Z,11.02
2023-03-06T00:50:25.299Z,11.30
2023-03-06T00:51:19.804Z,11.22
2023-03-06T00:52:13.268Z,11.49
2023-03-06T00:53:05.167Z,11.16
2023-03-06T00:53:56.777Z,11.91
2023-03-06T00:54:49.483Z,11.14
2023-03-06T00:55:44.567Z,12.16
2023-03-06T00:56:36.463Z,11.55
2023-03-06T00:57:27.929Z,11.10
2023-03-06T00:58:19.840Z,11.27
2023-03-06T00:59:11.558Z,11.65
2023-03-06T01:00:04.713Z,11.81
2023-03-06T01:00:56.610Z,11.47
2023-03-06T01:01:48.478Z,12.91
2023-03-06T01:02:39.976Z,12.87
2023-03-06T01:03:31.567Z,12.47
2023-03-06T01:04:23.696Z,12.78
2023-03-06T01:05:15.402Z,11.98
2023-03-06T01:06:07.579Z,12.71
2023-03-06T01:07:00.120Z,12.20
2023-03-06T01:07:51.554Z,12.16
2023-03-06T01:08:43.974Z,12.83
2023-03-06T01:09:35.497Z,12.03
2023-03-06T01:10:27.541Z,12.45
2023-03-06T01:11:19.251Z,12.50
2023-03-06T01:12:10.943Z,12.70
2023-03-06T01:13:02.407Z,12.71
2023-03-06T01:13:55.876Z,12.95
2023-03-06T01:14:47.563Z,12.86
2023-03-06T01:15:39.112Z,13.27
2023-03-06T01:16:31.067Z,13.06
2023-03-06T01:17:22.843Z,13.05
2023-03-06T01:18:15.328Z,13.05
2023-03-06T01:19:07.147Z,12.20
2023-03-06T01:19:58.754Z,12.91
2023-03-06T01:20:50.449Z,13.31
2023-03-06T01:21:41.888Z,13.34
2023-03-06T01:22:33.721Z,13.67
2023-03-06T01:23:25.221Z,13.59
2023-03-06T01:24:16.949Z,13.59
2023-03-06T01:25:09.296Z,13.85
2023-03-06T01:26:01.178Z,14.60
2023-03-06T01:26:52.734Z,14.28
2023-03-06T01:27:45.122Z,14.54
2023-03-06T01:28:39.237Z,14.90
2023-03-06T01:29:31.049Z,14.44
2023-03-06T01:30:22.902Z,14.42
2023-03-06T01:31:14.857Z,14.00
2023-03-06T01:32:06.923Z,14.73
2023-03-06T01:32:59.183Z,15.16
2023-03-06T01:33:50.737Z,15.40
2023-03-06T01:34:42.353Z,15.63
2023-03-06T01:35:34.095Z,15.28
2023-03-06T01:36:25.724Z,15.03
2023-03-06T01:37:17.438Z,15.23
2023-03-06T01:38:09.339Z,16.01
2023-03-06T01:39:01.032Z,15.38
2023-03-06T01:39:52.552Z,15.61
2023-03-06T01:40:44.292Z,15.24
2023-03-06T01:41:36.682Z,15.22
2023-03-06T01:42:28.191Z,15.84
2023-03-06T01:43:28.870Z,15.79
2023-03-06T01:44:20.295Z,15.28
2023-03-06T01:45:14.838Z,15.67
2023-03-06T01:46:54.237Z,16.22
2023-03-06T01:47:45.778Z,15.37
2023-03-06T01:48:37.748Z,15.67
2023-03-06T01:49:38.318Z,16.08
2023-03-06T01:50:32.665Z,15.96
2023-03-06T01:51:32.269Z,15.55
2023-03-06T01:52:30.239Z,16.08
2023-03-06T01:53:22.375Z,16.36
2023-03-06T01:54:30.934Z,16.00
2023-03-06T01:55:33.262Z,16.69
2023-03-06T01:56:25.573Z,16.77
2023-03-06T01:57:43.995Z,16.55
2023-03-06T01:58:36.369Z,16.77
2023-03-06T01:59:30.267Z,15.53
2023-03-06T02:00:26.113Z,15.44
2023-03-06T02:01:19.098Z,16.26
2023-03-06T02:02:14.310Z,16.15
2023-03-06T02:03:13.029Z,15.65
2023-03-06T02:04:05.034Z,16.00
2023-03-06T02:04:59.607Z,16.65
2023-03-06T02:05:51.466Z,17.33
2023-03-06T02:06:43.597Z,17.52
2023-03-06T02:07:37.220Z,17.45
2023-03-06T02:08:30.386Z,18.29
2023-03-06T02:09:22.180Z,16.78
2023-03-06T02:10:17.512Z,17.23
2023-03-06T02:11:18.165Z,17.15
2023-03-06T02:12:14.509Z,16.57
2023-03-06T02:13:06.224Z,16.77
2023-03-06T02:13:58.181Z,17.53
2023-03-06T02:14:50.586Z,17.51
2023-03-06T02:15:42.142Z,16.95
2023-03-06T02:16:34.272Z,16.42
2023-03-06T02:17:28.130Z,17.24
2023-03-06T02:18:20.042Z,16.95
2023-03-06T02:19:34.880Z,17.84
2023-03-06T02:20:29.213Z,16.65
2023-03-06T02:21:31.169Z,17.38
2023-03-06T02:22:25.754Z,17.88
2023-03-06T02:23:40.000Z,17.18
2023-03-06T02:24:56.590Z,17.98
2023-03-06T02:25:52.384Z,18.79
2023-03-06T02:26:45.187Z,17.69
2023-03-06T02:27:36.994Z,17.66
2023-03-06T02:28:29.036Z,17.82
2023-03-06T02:29:28.778Z,18.07
2023-03-06T02:30:25.507Z,18.11
2023-03-06T02:31:24.698Z,18.43
2023-03-06T02:32:16.351Z,18.79
2023-03-06T02:33:08.011Z,19.33
2023-03-06T02:34:22.354Z,19.07
2023-03-06T02:35:27.335Z,18.84
2023-03-06T02:36:19.298Z,18.94
2023-03-06T02:37:11.286Z,19.41
2023-03-06T02:38:12.023Z,19.57
2023-03-06T02:39:04.626Z,19.22
2023-03-06T02:40:08.241Z,19.33
2023-03-06T02:41:03.742Z,19.56
2023-03-06T02:41:55.540Z,19.43
2023-03-06T02:42:56.699Z,19.42
2023-03-06T02:43:52.230Z,20.64
2023-03-06T02:44:44.365Z,19.39
2023-03-06T02:45:40.677Z,19.78
2023-03-06T02:46:32.390Z,20.93
2023-03-06T02:47:25.297Z,20.05
2023-03-06T02:48:18.610Z,21.03
2023-03-06T02:49:10.790Z,20.78
2023-03-06T02:50:02.524Z,21.23
2023-03-06T02:50:54.161Z,21.58
2023-03-06T02:51:45.695Z,21.02
2023-03-06T02:52:37.392Z,20.19
2023-03-06T02:53:28.966Z,20.15
2023-03-06T02:54:20.619Z,20.57
2023-03-06T02:55:12.241Z,21.88
2023-03-06T02:56:03.974Z,21.91
2023-03-06T02:56:55.727Z,21.59
2023-03-06T02:57:48.338Z,21.89
2023-03-06T02:58:40.219Z,21.91
2023-03-06T02:59:31.958Z,22.20
2023-03-06T03:00:24.368Z,22.86
2023-03-06T03:01:16.077Z,22.10
2023-03-06T03:02:08.353Z,22.14
2023-03-06T03:03:00.119Z,21.78
2023-03-06T03:03:51.833Z,22.06
2023-03-06T03:04:46.077Z,21.79
2023-03-06T03:05:37.739Z,22.28
2023-03-06T03:06:36.773Z,23.80
2023-03-06T03:07:28.506Z,23.07
2023-03-06T03:08:20.535Z,23.25
2023-03-06T03:09:14.792Z,23.82
2023-03-06T03:10:07.208Z,22.97
2023-03-06T03:10:59.300Z,23.76
2023-03-06T03:11:54.417Z,23.65
2023-03-06T03:12:46.290Z,23.03
2023-03-06T03:13:38.993Z,23.63
2023-03-06T03:14:35.536Z,22.69
2023-03-06T03:15:28.217Z,23.42
2023-03-06T03:16:19.850Z,23.45
2023-03-06T03:17:11.496Z,24.41
2023-03-06T03:18:03.513Z,24.08
2023-03-06T03:18:55.073Z,24.02
2023-03-06T03:19:47.828Z,23.87
2023-03-06T03:20:42.934Z,23.03
2023-03-06T03:21:34.595Z,23.78
2023-03-06T03:22:26.370Z,24.00
2023-03-06T03:23:18.013Z,23.70
2023-03-06T03:24:09.522Z,23.22
2023-03-06T03:25:01.486Z,23.76
2023-03-06T03:25:53.517Z,24.34
2023-03-06T03:26:46.008Z,24.26
2023-03-06T03:27:40.304Z,24.01
2023-03-06T03:28:32.291Z,24.94
2023-03-06T03:29:24.200Z,24.13
2023-03-06T03:30:16.346Z,23.61
2023-03-06T03:31:10.043Z,23.76
2023-03-06T03:32:02.170Z,24.74
2023-03-06T03:32:53.882Z,25.00
2023-03-06T03:33:45.602Z,24.44
2023-03-06T03:34:38.005Z,24.06
2023-03-06T03:35:30.719Z,23.94
2023-03-06T03:36:22.439Z,23.84
2023-03-06T03:37:14.152Z,23.95
2023-03-06T03:38:07.595Z,24.19
2023-03-06T03:38:59.161Z,23.81
2023-03-06T03:39:51.189Z,25.24
2023-03-06T03:40:42.755Z,23.83
2023-03-06T03:41:34.456Z,24.09
2023-03-06T03:42:29.081Z,24.90
2023-03-06T03:43:20.607Z,24.27
2023-03-06T03:44:12.671Z,24.17
2023-03-06T03:45:04.579Z,24.52
2023-03-06T03:45:56.095Z,25.23
2023-03-06T03:46:48.618Z,24.78
2023-03-06T03:47:45.132Z,25.35
2023-03-06T03:48:37.608Z,25.00
2023-03-06T03:49:30.522Z,24.46
2023-03-06T03:50:24.555Z,25.02
2023-03-06T03:51:16.539Z,24.92
2023-03-06T03:52:12.509Z,26.19
2023-03-06T03:53:04.993Z,25.64
2023-03-06T03:53:58.064Z,25.27
2023-03-06T03:54:52.295Z,25.45
2023-03-06T03:55:45.989Z,24.05
2023-03-06T03:56:39.914Z,24.14
2023-03-06T03:57:36.513Z,25.80
2023-03-06T03:58:28.107Z,24.47
2023-03-06T03:59:19.894Z,25.25
2023-03-06T04:00:25.070Z,25.46
2023-03-06T04:01:27.079Z,25.19
2023-03-06T04:02:21.549Z,26.27
2023-03-06T04:03:20.821Z,26.17
2023-03-06T04:04:12.750Z,24.72
2023-03-06T04:05:08.239Z,25.37
2023-03-06T04:06:00.248Z,24.93
2023-03-06T04:06:52.457Z,25.83
2023-03-06T04:07:45.039Z,25.22
2023-03-06T04:08:37.023Z,24.78
2023-03-06T04:09:30.039Z,25.81
2023-03-06T04:10:24.266Z,26.26
2023-03-06T04:11:16.854Z,26.30
2023-03-06T04:12:09.281Z,25.43
2023-03-06T04:13:02.285Z,25.95
2023-03-06T04:13:54.134Z,26.70
2023-03-06T04:14:45.765Z,27.13
2023-03-06T04:15:37.933Z,25.08
2023-03-06T04:16:29.522Z,25.80
2023-03-06T04:17:21.174Z,25.76
2023-03-06T04:18:13.183Z,24.94
2023-03-06T04:19:05.410Z,27.45
2023-03-06T04:19:57.115Z,26.25
2023-03-06T04:20:50.009Z,26.38
2023-03-06T04:21:43.422Z,26.78
2023-03-06T04:22:34.900Z,26.41
2023-03-06T04:23:27.803Z,24.54
2023-03-06T04:24:19.560Z,26.17
2023-03-06T04:25:12.387Z,26.97
2023-03-06T04:26:04.239Z,27.24
2023-03-06T04:26:55.804Z,28.02
2023-03-06T04:27:47.744Z,29.63
2023-03-06T04:28:39.470Z,27.39
2023-03-06T04:29:31.500Z,26.49
2023-03-06T04:30:24.620Z,28.05
2023-03-06T04:31:16.284Z,28.66
2023-03-06T04:32:09.676Z,27.26
2023-03-06T04:33:01.561Z,27.06
2023-03-06T04:33:53.360Z,26.27
2023-03-06T04:34:44.909Z,25.99
2023-03-06T04:35:37.351Z,25.88
2023-03-06T04:36:34.711Z,24.52
2023-03-06T04:37:33.156Z,25.68
2023-03-06T04:38:25.668Z,24.15
2023-03-06T04:39:17.552Z,24.34
2023-03-06T04:40:20.062Z,24.29
2023-03-06T04:41:11.881Z,25.17
2023-03-06T04:42:03.842Z,24.55
2023-03-06T04:42:59.345Z,24.56
2023-03-06T04:43:51.836Z,24.70
2023-03-06T04:44:44.022Z,24.43
2023-03-06T04:45:35.762Z,25.32
2023-03-06T04:46:27.221Z,24.32
2023-03-06T04:47:19.263Z,24.69
2023-03-06T04:48:15.354Z,25.00
2023-03-06T04:49:07.074Z,24.70
2023-03-06T04:49:58.482Z,24.49
2023-03-06T04:50:50.014Z,25.82
2023-03-06T04:51:41.460Z,25.10
2023-03-06T04:52:33.025Z,25.47
2023-03-06T04:53:24.513Z,25.32
2023-03-06T04:54:17.942Z,25.79
2023-03-06T04:55:14.483Z,25.27
2023-03-06T04:56:06.601Z,25.38
2023-03-06T04:56:58.478Z,26.07
2023-03-06T04:57:49.952Z,25.02
2023-03-06T04:58:43.441Z,24.79
2023-03-06T04:59:36.023Z,25.29
2023-03-06T05:00:31.308Z,26.76
2023-03-06T05:01:23.063Z,27.00
2023-03-06T05:02:14.605Z,25.69
2023-03-06T05:03:06.037Z,25.63
2023-03-06T05:03:57.761Z,26.10
2023-03-06T05:04:49.219Z,25.92
2023-03-06T05:05:41.484Z,25.95
2023-03-06T05:06:33.160Z,26.35
2023-03-06T05:07:24.693Z,26.47
2023-03-06T05:08:18.330Z,26.07
2023-03-06T05:09:10.158Z,26.62
2023-03-06T05:10:01.649Z,25.89
2023-03-06T05:10:59.114Z,26.36
2023-03-06T05:11:51.290Z,25.79
2023-03-06T05:12:44.190Z,26.98
2023-03-06T05:13:35.693Z,27.12
2023-03-06T05:14:30.550Z,28.39
2023-03-06T05:15:22.229Z,28.15
2023-03-06T05:16:14.049Z,27.81
2023-03-06T05:17:05.898Z,27.93
2023-03-06T05:17:57.547Z,28.40
2023-03-06T05:18:50.693Z,28.07
2023-03-06T05:19:42.377Z,27.81
2023-03-06T05:20:33.960Z,28.25
2023-03-06T05:21:25.493Z,27.42
2023-03-06T05:22:17.258Z,28.01
2023-03-06T05:23:08.946Z,28.24
2023-03-06T05:24:00.561Z,27.98
2023-03-06T05:24:52.564Z,28.42
2023-03-06T05:25:44.034Z,28.16
2023-03-06T05:26:35.561Z,28.83
2023-03-06T05:27:28.020Z,28.47
2023-03-06T05:28:19.578Z,29.08
2023-03-06T05:29:11.561Z,28.60
2023-03-06T05:30:03.921Z,29.34
2023-03-06T05:30:55.370Z,29.64
2023-03-06T05:31:47.274Z,30.89
2023-03-06T05:32:39.108Z,30.02
2023-03-06T05:33:36.100Z,29.60
2023-03-06T05:34:27.524Z,28.24
2023-03-06T05:35:22.404Z,28.70
2023-03-06T05:36:13.965Z,29.54
2023-03-06T05:37:05.819Z,30.23
2023-03-06T05:37:58.554Z,28.75
2023-03-06T05:38:50.536Z,29.98
2023-03-06T05:39:42.514Z,29.47
2023-03-06T05:40:33.924Z,30.18
2023-03-06T05:41:25.400Z,30.65
2023-03-06T05:42:16.964Z,30.08
2023-03-06T05:43:08.955Z,29.55
2023-03-06T05:44:00.437Z,31.33
2023-03-06T05:44:51.992Z,32.35
2023-03-06T05:45:44.426Z,31.95
2023-03-06T05:46:36.170Z,31.33
2023-03-06T05:47:27.701Z,30.25
2023-03-06T05:48:19.441Z,31.32
2023-03-06T05:49:11.051Z,31.51
2023-03-06T05:50:04.908Z,32.79
2023-03-06T05:50:57.721Z,32.83
2023-03-06T05:51:49.194Z,32.69
2023-03-06T05:52:41.207Z,31.81
2023-03-06T05:53:32.995Z,30.53
2023-03-06T05:54:26.362Z,31.00
2023-03-06T05:55:19.746Z,31.28
2023-03-06T05:56:11.184Z,29.65
2023-03-06T05:57:04.969Z,29.44
2023-03-06T05:57:56.388Z,29.76
2023-03-06T05:58:48.826Z,29.24
2023-03-06T05:59:40.271Z,29.21
2023-03-06T06:00:31.747Z,29.62
2023-03-06T06:01:25.261Z,29.57
2023-03-06T06:02:18.107Z,30.27
2023-03-06T06:03:09.645Z,30.46
2023-03-06T06:04:01.089Z,30.02
2023-03-06T06:04:52.636Z,30.01
2023-03-06T06:05:44.445Z,30.65
2023-03-06T06:06:36.140Z,29.84
2023-03-06T06:07:27.766Z,30.34
2023-03-06T06:08:20.481Z,30.91
2023-03-06T06:09:13.906Z,30.16
2023-03-06T06:10:07.537Z,30.01
2023-03-06T06:10:59.147Z,29.32
2023-03-06T06:11:52.976Z,30.01
2023-03-06T06:12:44.445Z,31.19
2023-03-06T06:13:37.160Z,29.64
2023-03-06T06:14:30.060Z,30.50
2023-03-06T06:15:21.617Z,31.04
2023-03-06T06:16:16.651Z,29.99
2023-03-06T06:17:08.235Z,29.20
2023-03-06T06:17:59.729Z,30.29
2023-03-06T06:18:51.487Z,28.73
2023-03-06T06:19:43.268Z,30.36
2023-03-06T06:20:37.232Z,30.43
2023-03-06T06:21:28.656Z,29.44
2023-03-06T06:22:20.104Z,29.32
2023-03-06T06:23:11.959Z,29.40
2023-03-06T06:24:03.977Z,29.82
2023-03-06T06:24:55.676Z,29.37
2023-03-06T06:25:47.420Z,30.05
2023-03-06T06:26:39.388Z,28.98
2023-03-06T06:27:30.828Z,30.65
2023-03-06T06:28:22.232Z,30.07
2023-03-06T06:29:13.986Z,29.78
2023-03-06T06:30:07.721Z,28.81
2023-03-06T06:30:59.466Z,29.59
2023-03-06T06:31:53.061Z,29.91
2023-03-06T06:32:44.582Z,28.24
2023-03-06T06:33:36.376Z,29.33
2023-03-06T06:34:28.729Z,29.89
2023-03-06T06:35:20.315Z,30.51
2023-03-06T06:36:20.312Z,29.49
2023-03-06T06:37:11.907Z,30.33
2023-03-06T06:38:03.402Z,29.63
2023-03-06T06:38:54.832Z,27.72
2023-03-06T06:39:46.289Z,30.10
2023-03-06T06:40:37.994Z,29.26
2023-03-06T06:41:53.512Z,29.18
2023-03-06T06:42:41.826Z,30.85
2023-03-06T06:43:33.267Z,29.01
2023-03-06T06:44:24.942Z,28.05
2023-03-06T06:45:16.486Z,28.80
2023-03-06T06:46:38.863Z,28.32
2023-03-06T06:47:24.833Z,28.68
2023-03-06T06:48:17.813Z,28.91
2023-03-06T06:49:09.662Z,28.97
2023-03-06T06:50:01.170Z,27.59
2023-03-06T06:50:59.848Z,27.72
2023-03-06T06:51:51.502Z,26.01
2023-03-06T06:52:43.043Z,26.40
2023-03-06T06:53:34.692Z,26.03
2023-03-06T06:54:26.947Z,26.08
2023-03-06T06:55:18.561Z,26.00
2023-03-06T06:56:10.560Z,26.16
2023-03-06T06:57:02.304Z,25.14
2023-03-06T06:57:53.765Z,23.73
2023-03-06T06:58:45.280Z,24.96
2023-03-06T06:59:36.810Z,25.13
2023-03-06T07:00:28.507Z,25.59
2023-03-06T07:01:21.029Z,25.97
2023-03-06T07:02:14.135Z,25.10
2023-03-06T07:03:05.900Z,25.46
2023-03-06T07:03:57.504Z,26.31
2023-03-06T07:05:02.471Z,26.07
2023-03-06T07:05:55.819Z,25.23
2023-03-06T07:06:47.276Z,25.28
2023-03-06T07:07:39.145Z,25.36
2023-03-06T07:08:30.767Z,26.00
2023-03-06T07:09:22.288Z,26.14
2023-03-06T07:10:15.913Z,25.96
2023-03-06T07:11:14.782Z,25.57
2023-03-06T07:12:08.187Z,25.18
2023-03-06T07:13:00.037Z,25.31
2023-03-06T07:13:51.571Z,24.91
2023-03-06T07:14:43.314Z,25.48
2023-03-06T07:15:35.027Z,25.50
2023-03-06T07:16:26.757Z,25.20
2023-03-06T07:17:18.242Z,25.71
2023-03-06T07:18:10.042Z,25.39
2023-03-06T07:19:01.769Z,25.12
2023-03-06T07:19:53.283Z,25.35
2023-03-06T07:20:44.944Z,24.81
2023-03-06T07:21:36.585Z,25.37
2023-03-06T07:22:30.326Z,25.08
2023-03-06T07:23:24.799Z,25.54
2023-03-06T07:24:16.540Z,25.34
2023-03-06T07:25:08.563Z,26.45
2023-03-06T07:26:00.199Z,26.35
2023-03-06T07:26:52.472Z,26.01
2023-03-06T07:27:46.998Z,25.71
2023-03-06T07:28:52.326Z,25.83
2023-03-06T07:29:44.321Z,25.68
2023-03-06T07:30:35.991Z,26.39
2023-03-06T07:31:28.412Z,26.79
2023-03-06T07:32:20.903Z,26.78
2023-03-06T07:33:13.406Z,26.24
2023-03-06T07:34:05.180Z,26.70
2023-03-06T07:35:17.196Z,25.70
2023-03-06T07:36:12.782Z,24.74
2023-03-06T07:37:05.077Z,25.51
2023-03-06T07:37:56.541Z,24.50
2023-03-06T07:38:48.276Z,24.00
2023-03-06T07:39:39.813Z,25.55
2023-03-06T07:40:31.223Z,24.48
2023-03-06T07:41:22.865Z,24.84
2023-03-06T07:42:15.082Z,24.25
2023-03-06T07:43:19.452Z,24.35
2023-03-06T07:44:21.192Z,24.89
2023-03-06T07:45:14.334Z,25.29
2023-03-06T07:46:06.308Z,24.71
2023-03-06T07:46:57.807Z,25.91
2023-03-06T07:47:50.898Z,26.13
2023-03-06T07:48:42.880Z,25.83
2023-03-06T07:49:35.351Z,26.09
2023-03-06T07:50:27.019Z,25.59
2023-03-06T07:51:21.364Z,26.01
2023-03-06T07:52:12.809Z,26.25
2023-03-06T07:53:04.489Z,26.04
2023-03-06T07:53:55.906Z,26.39
2023-03-06T07:54:48.069Z,26.04
2023-03-06T07:55:41.200Z,25.41
2023-03-06T07:56:34.842Z,26.57
2023-03-06T07:57:26.761Z,26.60
2023-03-06T07:58:18.359Z,26.38
2023-03-06T07:59:11.560Z,25.84
2023-03-06T08:00:09.328Z,26.32
2023-03-06T08:01:10.995Z,27.03
2023-03-06T08:02:02.530Z,26.88
2023-03-06T08:02:54.081Z,26.89
2023-03-06T08:03:46.352Z,27.14
2023-03-06T08:04:38.164Z,26.84
2023-03-06T08:05:29.657Z,28.01
2023-03-06T08:06:24.284Z,27.08
2023-03-06T08:07:15.733Z,28.24
2023-03-06T08:08:07.346Z,27.33
2023-03-06T08:08:59.694Z,27.52
2023-03-06T08:09:51.199Z,27.85
2023-03-06T08:10:48.050Z,27.72
2023-03-06T08:11:39.572Z,28.46
2023-03-06T08:12:31.399Z,26.67
2023-03-06T08:13:22.779Z,27.04
2023-03-06T08:14:14.316Z,26.27
2023-03-06T08:15:06.777Z,27.15
2023-03-06T08:15:59.703Z,27.33
2023-03-06T08:16:52.018Z,28.22
2023-03-06T08:17:43.468Z,29.58
2023-03-06T08:18:36.032Z,27.66
2023-03-06T08:19:27.616Z,28.29
2023-03-06T08:20:19.237Z,28.31
2023-03-06T08:21:14.359Z,27.13
2023-03-06T08:22:06.890Z,28.00
2023-03-06T08:22:58.551Z,29.03
2023-03-06T08:23:50.716Z,28.35
2023-03-06T08:24:42.772Z,28.04
2023-03-06T08:25:34.194Z,28.33
2023-03-06T08:26:32.494Z,28.37
2023-03-06T08:27:24.341Z,28.42
2023-03-06T08:28:15.781Z,28.84
2023-03-06T08:29:08.048Z,29.15
2023-03-06T08:29:59.842Z,30.33
2023-03-06T08:30:51.345Z,28.90
2023-03-06T08:31:45.576Z,27.92
2023-03-06T08:32:37.595Z,29.52
2023-03-06T08:33:29.050Z,29.48
2023-03-06T08:34:24.450Z,28.60
2023-03-06T08:35:16.152Z,27.86
2023-03-06T08:36:07.796Z,27.62
2023-03-06T08:36:59.240Z,27.50
2023-03-06T08:37:50.809Z,28.65
2023-03-06T08:38:42.294Z,28.59
2023-03-06T08:39:33.805Z,30.06
2023-03-06T08:40:26.995Z,28.59
2023-03-06T08:41:20.415Z,28.65
2023-03-06T08:42:12.219Z,29.18
2023-03-06T08:43:04.009Z,30.52
2023-03-06T08:43:55.601Z,30.07
2023-03-06T08:44:47.170Z,30.36
2023-03-06T08:45:39.820Z,30.17
2023-03-06T08:46:32.789Z,30.68
2023-03-06T08:47:24.304Z,30.26
2023-03-06T08:48:15.779Z,29.69
2023-03-06T08:49:07.229Z,30.96
2023-03-06T08:50:00.195Z,30.58
2023-03-06T08:50:53.199Z,31.26
2023-03-06T08:51:44.681Z,30.72
2023-03-06T08:52:36.160Z,31.05
2023-03-06T08:53:41.636Z,30.81
2023-03-06T08:54:37.038Z,31.28
2023-03-06T08:55:28.765Z,30.79
2023-03-06T08:56:23.339Z,31.36
2023-03-06T08:57:14.993Z,30.63
2023-03-06T08:58:06.441Z,32.93
2023-03-06T08:59:00.117Z,33.45
2023-03-06T08:59:51.817Z,33.47
2023-03-06T09:00:43.470Z,34.61
2023-03-06T09:01:37.675Z,35.49
2023-03-06T09:02:29.450Z,33.34
2023-03-06T09:03:23.119Z,34.04
2023-03-06T09:04:14.800Z,34.74
2023-03-06T09:05:08.377Z,35.34
2023-03-06T09:06:00.151Z,34.84
2023-03-06T09:06:52.438Z,33.57
2023-03-06T09:07:44.915Z,32.17
2023-03-06T09:08:36.349Z,33.35
2023-03-06T09:09:27.857Z,33.14
2023-03-06T09:10:24.477Z,32.22
2023-03-06T09:11:16.007Z,33.01
2023-03-06T09:12:07.540Z,33.80
2023-03-06T09:12:59.190Z,34.64
2023-03-06T09:13:51.669Z,32.99
2023-03-06T09:14:43.184Z,31.39
2023-03-06T09:15:34.742Z,32.02
2023-03-06T09:16:26.596Z,31.57
2023-03-06T09:17:18.315Z,31.70
2023-03-06T09:18:09.772Z,30.98
2023-03-06T09:19:01.367Z,28.74
2023-03-06T09:19:52.905Z,28.07
2023-03-06T09:20:44.622Z,28.62
2023-03-06T09:21:36.107Z,29.00
2023-03-06T09:22:27.578Z,30.08
2023-03-06T09:23:19.071Z,29.16
2023-03-06T09:24:10.967Z,29.07
2023-03-06T09:25:04.448Z,28.33
2023-03-06T09:25:58.657Z,29.61
2023-03-06T09:26:51.742Z,29.05
2023-03-06T09:27:43.244Z,28.37
2023-03-06T09:28:39.947Z,29.56
2023-03-06T09:29:31.477Z,29.43
2023-03-06T09:30:23.302Z,29.34
2023-03-06T09:31:19.935Z,30.33
2023-03-06T09:32:12.246Z,30.24
2023-03-06T09:33:03.939Z,28.44
2023-03-06T09:33:55.363Z,27.75
2023-03-06T09:34:46.866Z,27.97
2023-03-06T09:35:54.588Z,26.89
2023-03-06T09:36:56.825Z,27.54
2023-03-06T09:37:49.078Z,28.28
2023-03-06T09:38:40.840Z,27.95
2023-03-06T09:39:32.666Z,27.27
2023-03-06T09:40:52.882Z,26.36
2023-03-06T09:41:49.410Z,27.22
2023-03-06T09:42:40.915Z,27.42
2023-03-06T09:43:40.270Z,26.92
2023-03-06T09:44:38.496Z,26.43
2023-03-06T09:45:36.943Z,26.97
2023-03-06T09:46:45.864Z,26.28
2023-03-06T09:47:55.884Z,27.25
2023-03-06T09:48:50.109Z,27.21
2023-03-06T09:50:01.774Z,26.37
2023-03-06T09:51:05.675Z,26.40
2023-03-06T09:52:18.412Z,26.84
2023-03-06T09:53:38.655Z,26.46
2023-03-06T09:54:55.581Z,25.07
2023-03-06T09:55:58.331Z,27.71
2023-03-06T09:56:51.019Z,28.32
2023-03-06T09:57:51.269Z,27.44
2023-03-06T09:59:08.627Z,27.56
2023-03-06T10:00:07.336Z,28.53
2023-03-06T10:01:04.749Z,26.55
2023-03-06T10:02:15.840Z,26.77
2023-03-06T10:03:39.252Z,27.71
2023-03-06T10:04:50.242Z,27.65
2023-03-06T10:05:57.983Z,27.16
2023-03-06T10:06:55.631Z,26.32
2023-03-06T10:07:58.182Z,26.48
2023-03-06T10:09:02.356Z,27.64
2023-03-06T10:09:59.775Z,27.65
2023-03-06T10:11:02.214Z,26.98
2023-03-06T10:12:06.568Z,26.28
2023-03-06T10:13:24.070Z,26.01
2023-03-06T10:14:21.130Z,26.43
2023-03-06T10:15:26.693Z,27.06
2023-03-06T10:16:26.761Z,25.83
2023-03-06T10:17:22.143Z,26.40
2023-03-06T10:18:14.116Z,26.35
2023-03-06T10:19:13.770Z,26.13
2023-03-06T10:20:20.758Z,26.24
2023-03-06T10:21:44.526Z,26.59
2023-03-06T10:23:00.840Z,24.67
2023-03-06T10:23:59.797Z,24.35
2023-03-06T10:25:12.596Z,25.04
2023-03-06T10:26:19.093Z,25.10
2023-03-06T10:27:26.472Z,25.86
2023-03-06T10:28:30.189Z,24.68
2023-03-06T10:29:39.302Z,24.84
2023-03-06T10:30:48.158Z,24.53
2023-03-06T10:31:49.271Z,25.06
2023-03-06T10:32:48.912Z,24.80
2023-03-06T10:34:17.326Z,25.77
2023-03-06T10:35:19.027Z,25.05
2023-03-06T10:36:15.794Z,24.77
2023-03-06T10:37:19.543Z,25.20
2023-03-06T10:38:19.927Z,25.46
2023-03-06T10:39:21.043Z,25.10
2023-03-06T10:40:28.697Z,25.14
2023-03-06T10:41:27.555Z,25.28
2023-03-06T10:42:19.091Z,25.66
2023-03-06T10:43:12.423Z,25.03
2023-03-06T10:44:03.931Z,24.83
2023-03-06T10:45:12.473Z,24.97
2023-03-06T10:46:06.532Z,25.67
2023-03-06T10:46:58.022Z,25.69
2023-03-06T10:47:50.312Z,25.95
2023-03-06T10:48:42.724Z,25.85
2023-03-06T10:49:37.799Z,26.27
2023-03-06T10:50:30.653Z,25.76
2023-03-06T10:51:25.429Z,26.24
2023-03-06T10:52:16.881Z,25.68
2023-03-06T10:53:24.006Z,25.17
2023-03-06T10:54:19.190Z,25.25
2023-03-06T10:55:27.837Z,25.54
2023-03-06T10:56:34.582Z,25.30
2023-03-06T10:57:31.130Z,26.34
2023-03-06T10:58:32.156Z,25.20
2023-03-06T10:59:28.242Z,23.88
2023-03-06T11:00:28.229Z,23.54
2023-03-06T11:01:22.004Z,23.15
2023-03-06T11:02:32.783Z,23.76
2023-03-06T11:03:24.983Z,23.07
2023-03-06T11:04:36.796Z,24.27
2023-03-06T11:05:28.567Z,24.13
2023-03-06T11:06:35.541Z,25.00
2023-03-06T11:07:30.442Z,25.28
2023-03-06T11:08:23.612Z,25.26
2023-03-06T11:09:24.524Z,25.07
2023-03-06T11:10:19.503Z,24.64
2023-03-06T11:11:36.840Z,24.19
2023-03-06T11:12:37.812Z,23.62
2023-03-06T11:13:33.044Z,23.76
2023-03-06T11:14:27.191Z,24.23
2023-03-06T11:15:22.741Z,25.14
2023-03-06T11:16:30.344Z,24.80
2023-03-06T11:17:29.719Z,25.18
2023-03-06T11:18:31.053Z,25.40
2023-03-06T11:19:27.257Z,24.40
2023-03-06T11:20:25.263Z,24.14
2023-03-06T11:21:31.414Z,22.74
2023-03-06T11:22:23.331Z,23.96
2023-03-06T11:23:18.904Z,24.75
2023-03-06T11:24:20.126Z,24.08
2023-03-06T11:25:16.198Z,21.85
2023-03-06T11:26:16.739Z,21.28
2023-03-06T11:27:36.574Z,23.69
2023-03-06T11:28:41.725Z,22.18
2023-03-06T11:29:46.686Z,21.45
2023-03-06T11:30:48.121Z,21.71
2023-03-06T11:32:04.283Z,22.59
2023-03-06T11:33:03.273Z,22.14
2023-03-06T11:34:00.958Z,22.78
2023-03-06T11:34:58.389Z,23.70
2023-03-06T11:36:13.812Z,23.76
2023-03-06T11:37:45.650Z,24.16
2023-03-06T11:38:51.628Z,23.29
2023-03-06T11:40:04.667Z,23.06
2023-03-06T11:41:01.285Z,22.17
2023-03-06T11:42:03.556Z,22.21
2023-03-06T11:43:17.032Z,22.60
2023-03-06T11:44:38.198Z,20.97